createdAt,value
2018-05-15T00:02:00.596Z,93205.13
2018-05-15T00:04:31.056Z,93208.34
2018-05-15T00:06:59.439Z,93209.28
2018-05-15T00:09:27.731Z,93208.77
2018-05-15T00:11:58.309Z,93212.86
2018-05-15T00:14:26.653Z,93216.42
2018-05-15T00:16:55.035Z,93220.73
2018-05-15T00:19:25.614Z,93225.22
2018-05-15T00:21:54.056Z,93228.04
2018-05-15T00:24:22.376Z,93229.95
2018-05-15T00:26:50.696Z,93228.44
2018-05-15T00:29:19.068Z,93228.28
2018-05-15T00:31:47.427Z,93227.73
2018-05-15T00:34:15.765Z,93223.38
2018-05-15T00:36:44.088Z,93220.67
2018-05-15T00:39:16.828Z,93227.89
2018-05-15T00:41:45.238Z,93236.18
2018-05-15T00:44:15.833Z,93231.31
2018-05-15T00:46:44.226Z,93235.47
2018-05-15T00:49:14.789Z,93238.73
2018-05-15T00:51:43.132Z,93233.34
2018-05-15T00:54:11.456Z,93236.73
2018-05-15T00:56:42.105Z,93238.40
2018-05-15T00:59:10.548Z,93232.66
2018-05-15T01:01:38.864Z,93231.33
2018-05-15T01:04:07.217Z,93229.78
2018-05-15T01:06:35.601Z,93226.84
2018-05-15T01:09:04.204Z,93228.16
2018-05-15T01:11:32.507Z,93227.48
2018-05-15T01:14:00.830Z,93226.93
2018-05-15T01:16:33.640Z,93225.19
2018-05-15T01:19:01.993Z,93235.91
2018-05-15T01:21:30.321Z,93238.14
2018-05-15T01:23:58.987Z,93244.19
2018-05-15T01:26:27.297Z,93234.20
2018-05-15T01:28:55.621Z,93234.73
2018-05-15T01:31:24.006Z,93231.19
2018-05-15T01:33:52.324Z,93231.94
2018-05-15T01:36:20.669Z,93237.77
2018-05-15T01:38:48.972Z,93235.13
2018-05-15T01:41:19.561Z,93239.84
2018-05-15T01:43:49.853Z,93235.35
2018-05-15T01:46:18.188Z,93230.89
2018-05-15T01:48:46.533Z,93235.13
2018-05-15T01:51:17.132Z,93236.23
2018-05-15T01:53:45.483Z,93238.77
2018-05-15T01:56:14.145Z,93241.50
2018-05-15T01:58:44.725Z,93240.41
2018-05-15T02:01:15.326Z,93234.75
2018-05-15T02:03:43.678Z,93238.11
2018-05-15T02:06:11.992Z,93229.70
2018-05-15T02:08:40.339Z,93231.65
2018-05-15T02:11:08.653Z,93230.80
2018-05-15T02:13:37.047Z,93226.03
2018-05-15T02:16:07.560Z,93237.15
2018-05-15T02:18:38.048Z,93238.48
2018-05-15T02:21:06.348Z,93235.11
2018-05-15T02:23:34.677Z,93241.66
2018-05-15T02:26:03.046Z,93240.66
2018-05-15T02:28:31.372Z,93236.84
2018-05-15T02:30:59.724Z,93239.20
2018-05-15T02:33:28.044Z,93234.28
2018-05-15T02:36:00.847Z,93230.56
2018-05-15T02:38:29.191Z,93234.50
2018-05-15T02:40:57.509Z,93229.41
2018-05-15T02:43:25.845Z,93234.87
2018-05-15T02:45:54.192Z,93235.30
2018-05-15T02:48:22.526Z,93233.94
2018-05-15T02:50:50.871Z,93233.59
2018-05-15T02:53:19.231Z,93235.38
2018-05-15T02:55:49.849Z,93227.09
2018-05-15T02:58:20.141Z,93232.22
2018-05-15T03:00:48.456Z,93232.00
2018-05-15T03:03:16.809Z,93227.56
2018-05-15T03:05:47.407Z,93229.88
2018-05-15T03:08:16.121Z,93232.27
2018-05-15T03:10:44.436Z,93228.50
2018-05-15T03:13:12.748Z,93225.35
2018-05-15T03:15:41.509Z,93229.23
2018-05-15T03:18:09.856Z,93234.63
2018-05-15T03:20:38.179Z,93242.24
2018-05-15T03:23:06.537Z,93240.50
2018-05-15T03:25:34.881Z,93235.27
2018-05-15T03:28:03.214Z,93228.57
2018-05-15T03:30:35.885Z,93235.55
2018-05-15T03:33:06.468Z,93242.61
2018-05-15T03:35:35.112Z,93243.62
2018-05-15T03:38:05.706Z,93234.86
2018-05-15T03:40:36.293Z,93243.77
2018-05-15T03:43:04.611Z,93245.78
2018-05-15T03:45:37.676Z,93249.04
2018-05-15T03:48:06.011Z,93248.50
2018-05-15T03:50:36.597Z,93248.84
2018-05-15T03:53:04.936Z,93256.05
2018-05-15T03:55:33.343Z,93258.95
2018-05-15T03:58:01.700Z,93260.05
2018-05-15T04:00:36.199Z,93259.97
2018-05-15T04:03:10.713Z,93263.89
2018-05-15T04:05:47.263Z,93266.50
2018-05-15T04:08:17.747Z,93267.06
2018-05-15T04:10:46.378Z,93271.09
2018-05-15T04:13:14.590Z,93271.94
2018-05-15T04:15:42.988Z,93270.67
2018-05-15T04:18:13.548Z,93274.73
2018-05-15T04:20:44.984Z,93277.27
2018-05-15T04:23:13.338Z,93279.91
2018-05-15T04:25:41.680Z,93279.19
2018-05-15T04:28:10.108Z,93281.33
2018-05-15T04:30:40.964Z,93288.34
2018-05-15T04:33:09.285Z,93288.23
2018-05-15T04:35:39.906Z,93287.70
2018-05-15T04:38:08.562Z,93291.65
2018-05-15T04:40:41.349Z,93296.78
2018-05-15T04:43:09.682Z,93298.86
2018-05-15T04:45:38.017Z,93297.45
2018-05-15T04:48:06.328Z,93297.72
2018-05-15T04:50:34.969Z,93291.89
2018-05-15T04:53:07.601Z,93290.37
2018-05-15T04:55:36.018Z,93303.48
2018-05-15T04:58:06.606Z,93300.83
2018-05-15T05:00:34.938Z,93304.83
2018-05-15T05:03:03.328Z,93309.10
2018-05-15T05:05:31.645Z,93305.42
2018-05-15T05:07:59.987Z,93304.69
2018-05-15T05:10:28.323Z,93297.03
2018-05-15T05:12:57.013Z,93296.28
2018-05-15T05:15:25.320Z,93309.91
2018-05-15T05:17:53.628Z,93313.10
2018-05-15T05:20:28.683Z,93319.63
2018-05-15T05:22:57.017Z,93323.32
2018-05-15T05:25:25.380Z,93320.02
2018-05-15T05:27:53.707Z,93322.19
2018-05-15T05:30:26.528Z,93324.08
2018-05-15T05:32:54.880Z,93322.56
2018-05-15T05:35:23.193Z,93328.19
2018-05-15T05:37:51.760Z,93333.94
2018-05-15T05:40:20.088Z,93330.20
2018-05-15T05:42:54.952Z,93330.15
2018-05-15T05:45:23.275Z,93324.93
2018-05-15T05:47:51.582Z,93324.05
2018-05-15T05:50:22.241Z,93320.86
2018-05-15T05:52:50.580Z,93327.75
2018-05-15T05:55:19.028Z,93329.08
2018-05-15T05:57:49.526Z,93332.52
2018-05-15T06:00:17.837Z,93338.34
2018-05-15T06:02:48.026Z,93344.12
2018-05-15T06:05:18.525Z,93342.57
2018-05-15T06:07:46.841Z,93343.56
2018-05-15T06:10:15.512Z,93326.53
2018-05-15T06:12:43.852Z,93321.57
2018-05-15T06:15:12.168Z,93331.00
2018-05-15T06:17:45.263Z,93325.44
2018-05-15T06:20:13.585Z,93338.29
2018-05-15T06:22:41.911Z,93337.83
2018-05-15T06:25:10.264Z,93344.48
2018-05-15T06:27:38.576Z,93342.02
2018-05-15T06:30:06.901Z,93340.95
2018-05-15T06:32:35.251Z,93336.09
2018-05-15T06:35:04.114Z,93342.78
2018-05-15T06:37:32.445Z,93338.02
2018-05-15T06:40:00.757Z,93353.83
2018-05-15T06:42:29.078Z,93359.41
2018-05-15T06:45:01.791Z,93365.25
2018-05-15T06:47:32.393Z,93359.55
2018-05-15T06:50:00.709Z,93368.91
2018-05-15T06:52:29.044Z,93378.80
2018-05-15T06:54:57.677Z,93365.11
2018-05-15T06:57:30.491Z,93365.39
2018-05-15T06:59:58.839Z,93358.83
2018-05-15T07:02:27.146Z,93359.48
2018-05-15T07:04:55.481Z,93356.58
2018-05-15T07:07:23.783Z,93360.41
2018-05-15T07:09:54.265Z,93351.91
2018-05-15T07:12:22.621Z,93360.63
2018-05-15T07:14:50.955Z,93368.41
2018-05-15T07:17:19.267Z,93361.39
2018-05-15T07:19:52.081Z,93367.36
2018-05-15T07:22:22.693Z,93359.81
2018-05-15T07:24:59.628Z,93371.66
2018-05-15T07:27:28.100Z,93368.90
2018-05-15T07:29:56.346Z,93376.48
2018-05-15T07:32:24.685Z,93379.33
2018-05-15T07:34:55.197Z,93381.98
2018-05-15T07:37:23.528Z,93383.77
2018-05-15T07:39:51.861Z,93377.84
2018-05-15T07:42:26.829Z,93373.78
2018-05-15T07:44:57.384Z,93380.59
2018-05-15T07:47:25.704Z,93378.99
2018-05-15T07:49:54.272Z,93381.34
2018-05-15T07:52:22.600Z,93391.87
2018-05-15T07:54:50.928Z,93388.61
2018-05-15T07:57:19.268Z,93384.47
2018-05-15T07:59:47.590Z,93390.78
2018-05-15T08:02:20.084Z,93395.77
2018-05-15T08:04:48.389Z,93395.95
2018-05-15T08:07:16.777Z,93399.22
2018-05-15T08:09:47.272Z,93404.07
2018-05-15T08:12:17.963Z,93409.30
2018-05-15T08:14:46.301Z,93416.64
2018-05-15T08:17:14.629Z,93414.39
2018-05-15T08:19:45.063Z,93414.09
2018-05-15T08:22:15.656Z,93422.70
2018-05-15T08:24:44.260Z,93423.50
2018-05-15T08:27:12.592Z,93426.33
2018-05-15T08:29:41.013Z,93435.27
2018-05-15T08:32:09.393Z,93429.50
2018-05-15T08:34:37.701Z,93429.77
2018-05-15T08:37:08.509Z,93435.03
2018-05-15T08:39:39.089Z,93437.72
2018-05-15T08:42:07.399Z,93440.38
2018-05-15T08:44:35.773Z,93447.47
2018-05-15T08:47:04.117Z,93439.66
2018-05-15T08:49:34.885Z,93442.77
2018-05-15T08:52:03.218Z,93436.11
2018-05-15T08:54:31.565Z,93437.45
2018-05-15T08:57:05.848Z,93446.28
2018-05-15T08:59:34.182Z,93445.81
2018-05-15T09:02:04.695Z,93445.05
2018-05-15T09:04:34.970Z,93447.39
2018-05-15T09:07:03.319Z,93443.30
2018-05-15T09:09:31.637Z,93443.83
2018-05-15T09:12:02.180Z,93436.67
2018-05-15T09:14:30.514Z,93434.14
2018-05-15T09:16:58.833Z,93441.33
2018-05-15T09:19:27.175Z,93446.54
2018-05-15T09:21:57.593Z,93446.38
2018-05-15T09:24:25.926Z,93443.85
2018-05-15T09:26:56.490Z,93445.71
2018-05-15T09:29:30.548Z,93448.11
2018-05-15T09:32:08.696Z,93439.29
2018-05-15T09:34:37.025Z,93448.41
2018-05-15T09:37:07.612Z,93457.19
2018-05-15T09:39:35.921Z,93445.77
2018-05-15T09:42:04.248Z,93446.59
2018-05-15T09:44:32.593Z,93442.31
2018-05-15T09:47:03.155Z,93441.77
2018-05-15T09:49:33.563Z,93436.95
2018-05-15T09:52:01.901Z,93433.38
2018-05-15T09:54:32.376Z,93441.95
2018-05-15T09:57:00.708Z,93442.39
2018-05-15T09:59:31.216Z,93436.98
2018-05-15T10:01:59.553Z,93434.25
2018-05-15T10:04:27.900Z,93432.33
2018-05-15T10:06:58.531Z,93430.72
2018-05-15T10:09:28.925Z,93439.13
2018-05-15T10:11:59.516Z,93432.45
2018-05-15T10:14:27.825Z,93437.86
2018-05-15T10:16:56.141Z,93435.80
2018-05-15T10:19:24.468Z,93438.31
2018-05-15T10:21:54.296Z,93431.36
2018-05-15T10:24:22.605Z,93428.93
2018-05-15T10:26:50.978Z,93435.86
2018-05-15T10:29:19.375Z,93440.83
2018-05-15T10:31:47.693Z,93438.73
2018-05-15T10:34:16.049Z,93434.23
2018-05-15T10:36:46.788Z,93429.00
2018-05-15T10:39:15.159Z,93436.77
2018-05-15T10:41:43.761Z,93431.61
2018-05-15T10:44:12.069Z,93444.01
2018-05-15T10:46:40.409Z,93432.09
2018-05-15T10:49:08.768Z,93435.50
2018-05-15T10:51:37.104Z,93440.83
2018-05-15T10:54:05.480Z,93436.81
2018-05-15T10:56:37.442Z,93439.34
2018-05-15T10:59:05.794Z,93439.55
2018-05-15T11:01:34.178Z,93440.14
2018-05-15T11:04:02.558Z,93433.98
2018-05-15T11:06:31.124Z,93429.05
2018-05-15T11:08:59.475Z,93431.59
2018-05-15T11:11:27.764Z,93421.79
2018-05-15T11:13:56.110Z,93428.77
2018-05-15T11:16:24.467Z,93426.09
2018-05-15T11:18:52.855Z,93422.72
2018-05-15T11:21:28.897Z,93415.40
2018-05-15T11:24:03.402Z,93426.48
2018-05-15T11:26:31.742Z,93428.74
2018-05-15T11:29:02.244Z,93428.18
2018-05-15T11:31:30.593Z,93433.08
2018-05-15T11:34:00.233Z,93426.56
2018-05-15T11:36:28.624Z,93422.52
2018-05-15T11:38:57.058Z,93411.44
2018-05-15T11:41:25.375Z,93422.03
2018-05-15T11:43:53.816Z,93418.72
2018-05-15T11:46:22.154Z,93426.21
2018-05-15T11:48:51.234Z,93415.14
2018-05-15T11:51:21.583Z,93404.91
2018-05-15T11:53:49.259Z,93414.41
2018-05-15T11:56:17.585Z,93403.03
2018-05-15T11:58:45.915Z,93408.11
2018-05-15T12:01:16.200Z,93410.61
2018-05-15T12:03:44.676Z,93409.12
2018-05-15T12:06:12.998Z,93402.04
2018-05-15T12:08:43.401Z,93392.11
2018-05-15T12:11:12.086Z,93402.57
2018-05-15T12:13:42.504Z,93399.20
2018-05-15T12:16:10.905Z,93398.42
2018-05-15T12:18:42.924Z,93387.33
2018-05-15T12:21:13.273Z,93387.89
2018-05-15T12:23:43.613Z,93384.78
2018-05-15T12:26:11.885Z,93394.45
2018-05-15T12:28:40.227Z,93387.38
2018-05-15T12:31:08.586Z,93394.77
2018-05-15T12:33:36.923Z,93403.87
2018-05-15T12:36:05.245Z,93386.92
2018-05-15T12:38:33.635Z,93398.55
2018-05-15T12:41:01.970Z,93397.44
2018-05-15T12:43:30.624Z,93412.28
2018-05-15T12:45:58.957Z,93413.33
2018-05-15T12:48:27.342Z,93397.46
2018-05-15T12:50:55.881Z,93410.99
2018-05-15T12:53:24.200Z,93420.81
2018-05-15T12:55:52.516Z,93411.03
2018-05-15T12:58:20.865Z,93423.71
2018-05-15T13:00:49.245Z,93421.95
2018-05-15T13:03:18.078Z,93407.30
2018-05-15T13:05:46.392Z,93423.19
2018-05-15T13:08:14.757Z,93414.09
2018-05-15T13:10:43.093Z,93420.69
2018-05-15T13:13:11.405Z,93421.01
2018-05-15T13:15:39.773Z,93422.49
2018-05-15T13:18:08.138Z,93425.31
2018-05-15T13:20:36.505Z,93433.62
2018-05-15T13:23:05.101Z,93433.53
2018-05-15T13:25:33.439Z,93433.14
2018-05-15T13:28:03.851Z,93435.30
2018-05-15T13:30:34.313Z,93425.43
2018-05-15T13:33:02.632Z,93444.94
2018-05-15T13:35:34.550Z,93444.25
2018-05-15T13:38:02.909Z,93439.48
2018-05-15T13:40:31.264Z,93442.41
2018-05-15T13:43:02.768Z,93451.00
2018-05-15T13:45:31.104Z,93446.39
2018-05-15T13:47:59.432Z,93442.80
2018-05-15T13:50:27.849Z,93431.89
2018-05-15T13:52:55.876Z,93426.26
2018-05-15T13:55:24.339Z,93436.95
2018-05-15T13:57:52.693Z,93428.58
2018-05-15T14:00:21.006Z,93431.23
2018-05-15T14:02:49.317Z,93411.47
2018-05-15T14:05:17.693Z,93433.95
2018-05-15T14:07:46.000Z,93430.88
2018-05-15T14:10:14.301Z,93426.98
2018-05-15T14:12:42.630Z,93440.38
2018-05-15T14:15:10.944Z,93433.52
2018-05-15T14:17:39.309Z,93447.84
2018-05-15T14:20:07.683Z,93443.38
2018-05-15T14:22:36.009Z,93436.83
2018-05-15T14:25:04.388Z,93440.52
2018-05-15T14:27:32.851Z,93441.31
2018-05-15T14:30:03.019Z,93431.86
2018-05-15T14:32:31.373Z,93429.03
2018-05-15T14:34:59.696Z,93434.50
2018-05-15T14:37:28.018Z,93433.70
2018-05-15T14:39:56.395Z,93437.27
2018-05-15T14:42:30.936Z,93436.11
2018-05-15T14:45:01.329Z,93429.80
2018-05-15T14:47:29.593Z,93423.77
2018-05-15T14:49:57.978Z,93416.15
2018-05-15T14:52:26.321Z,93411.60
2018-05-15T14:54:54.701Z,93401.30
2018-05-15T14:57:23.052Z,93414.48
2018-05-15T14:59:53.509Z,93421.70
2018-05-15T15:02:21.845Z,93416.99
2018-05-15T15:04:51.785Z,93418.56
2018-05-15T15:07:23.837Z,93421.92
2018-05-15T15:09:52.190Z,93432.66
2018-05-15T15:12:20.525Z,93421.13
2018-05-15T15:14:50.989Z,93433.23
2018-05-15T15:17:19.396Z,93421.47
2018-05-15T15:19:47.642Z,93423.89
2018-05-15T15:22:16.338Z,93414.50
2018-05-15T15:24:44.677Z,93401.34
2018-05-15T15:27:13.062Z,93390.39
2018-05-15T15:29:41.396Z,93397.62
2018-05-15T15:32:11.706Z,93391.00
2018-05-15T15:34:42.205Z,93399.47
2018-05-15T15:37:10.545Z,93385.47
2018-05-15T15:39:38.882Z,93388.13
2018-05-15T15:42:07.457Z,93388.36
2018-05-15T15:44:35.775Z,93390.52
2018-05-15T15:47:07.887Z,93389.86
2018-05-15T15:49:38.302Z,93394.83
2018-05-15T15:52:06.716Z,93387.90
2018-05-15T15:54:35.085Z,93387.09
2018-05-15T15:57:03.424Z,93390.51
2018-05-15T15:59:33.678Z,93387.52
2018-05-15T16:02:02.050Z,93386.13
2018-05-15T16:04:30.382Z,93382.23
2018-05-15T16:07:00.475Z,93372.70
2018-05-15T16:09:28.837Z,93377.22
2018-05-15T16:11:57.145Z,93377.04
2018-05-15T16:14:25.493Z,93371.91
2018-05-15T16:16:53.853Z,93374.75
2018-05-15T16:19:22.176Z,93379.17
2018-05-15T16:21:52.568Z,93381.45
2018-05-15T16:24:25.022Z,93386.79
2018-05-15T16:26:53.353Z,93382.70
2018-05-15T16:29:23.202Z,93391.28
2018-05-15T16:31:51.581Z,93404.28
2018-05-15T16:34:19.893Z,93410.33
2018-05-15T16:36:48.231Z,93388.45
2018-05-15T16:39:20.658Z,93402.57
2018-05-15T16:41:49.409Z,93403.41
2018-05-15T16:44:19.886Z,93392.59
2018-05-15T16:46:48.248Z,93388.00
2018-05-15T16:49:16.630Z,93407.05
2018-05-15T16:51:47.029Z,93426.02
2018-05-15T16:54:15.421Z,93410.02
2018-05-15T16:56:43.728Z,93418.91
2018-05-15T16:59:12.380Z,93429.67
2018-05-15T17:01:40.909Z,93446.52
2018-05-15T17:04:09.256Z,93446.42
2018-05-15T17:06:37.805Z,93452.91
2018-05-15T17:09:06.200Z,93462.58
2018-05-15T17:11:34.618Z,93462.33
2018-05-15T17:14:03.117Z,93461.45
2018-05-15T17:16:31.512Z,93464.52
2018-05-15T17:18:59.849Z,93469.22
2018-05-15T17:21:28.330Z,93477.11
2018-05-15T17:23:56.877Z,93469.05
2018-05-15T17:26:25.393Z,93471.35
2018-05-15T17:28:54.108Z,93474.33
2018-05-15T17:31:22.512Z,93471.67
2018-05-15T17:33:51.033Z,93471.86
2018-05-15T17:36:19.829Z,93477.51
2018-05-15T17:38:48.363Z,93482.75
2018-05-15T17:41:16.778Z,93485.74
2018-05-15T17:43:45.391Z,93481.94
2018-05-15T17:46:13.705Z,93496.29
2018-05-15T17:48:42.319Z,93507.50
2018-05-15T17:51:10.958Z,93524.17
2018-05-15T17:53:39.340Z,93536.95
2018-05-15T17:56:07.938Z,93545.29
2018-05-15T17:58:36.609Z,93553.48
2018-05-15T18:01:04.964Z,93566.64
2018-05-15T18:03:33.673Z,93569.67
2018-05-15T18:06:02.283Z,93571.02
2018-05-15T18:08:31.003Z,93580.43
2018-05-15T18:10:59.675Z,93579.89
2018-05-15T18:13:28.427Z,93593.94
2018-05-15T18:15:56.917Z,93591.68
2018-05-15T18:18:25.346Z,93588.36
2018-05-15T18:20:54.024Z,93569.43
2018-05-15T18:23:23.237Z,93560.15
2018-05-15T18:25:51.637Z,93564.07
2018-05-15T18:28:20.322Z,93560.44
2018-05-15T18:30:49.090Z,93561.16
2018-05-15T18:33:17.282Z,93564.02
2018-05-15T18:35:45.846Z,93567.20
2018-05-15T18:38:14.471Z,93565.77
2018-05-15T18:40:43.017Z,93561.03
2018-05-15T18:43:11.486Z,93556.05
2018-05-15T18:45:40.071Z,93554.66
2018-05-15T18:48:08.692Z,93552.56
2018-05-15T18:50:37.365Z,93539.34
2018-05-15T18:53:06.060Z,93537.14
2018-05-15T18:55:34.611Z,93539.58
2018-05-15T18:58:02.937Z,93559.87
2018-05-15T19:00:31.560Z,93560.17
2018-05-15T19:03:00.094Z,93569.17
2018-05-15T19:05:28.499Z,93571.92
2018-05-15T19:07:57.075Z,93572.69
2018-05-15T19:10:26.043Z,93572.49
2018-05-15T19:12:54.859Z,93588.58
2018-05-15T19:15:23.594Z,93602.52
2018-05-15T19:17:52.356Z,93617.06
2018-05-15T19:20:20.865Z,93627.27
2018-05-15T19:22:49.493Z,93635.46
2018-05-15T19:25:18.004Z,93640.91
2018-05-15T19:27:46.509Z,93651.50
2018-05-15T19:30:15.153Z,93658.98
2018-05-15T19:32:43.818Z,93656.86
2018-05-15T19:35:18.741Z,93655.84
2018-05-15T19:37:47.699Z,93658.17
2018-05-15T19:40:16.437Z,93668.69
2018-05-15T19:42:45.122Z,93676.56
2018-05-15T19:45:14.051Z,93674.54
2018-05-15T19:47:42.797Z,93670.09
2018-05-15T19:50:11.525Z,93664.03
2018-05-15T19:52:39.861Z,93657.56
2018-05-15T19:55:08.499Z,93664.23
2018-05-15T19:57:37.229Z,93666.95
2018-05-15T20:00:05.975Z,93663.70
2018-05-15T20:02:34.622Z,93668.66
2018-05-15T20:05:03.340Z,93660.00
2018-05-15T20:07:32.073Z,93657.77
2018-05-15T20:10:00.713Z,93653.63
2018-05-15T20:12:29.233Z,93654.73
2018-05-15T20:14:58.023Z,93664.02
2018-05-15T20:17:26.665Z,93668.47
2018-05-15T20:19:55.549Z,93662.22
2018-05-15T20:22:24.165Z,93655.95
2018-05-15T20:24:52.542Z,93661.59
2018-05-15T20:27:21.349Z,93656.17
2018-05-15T20:29:50.113Z,93654.94
2018-05-15T20:32:18.776Z,93650.30
2018-05-15T20:34:47.787Z,93654.73
2018-05-15T20:37:16.444Z,93647.55
2018-05-15T20:39:45.143Z,93647.04
2018-05-15T20:42:14.181Z,93651.87
2018-05-15T20:44:42.913Z,93657.74
2018-05-15T20:47:11.558Z,93658.81
2018-05-15T20:49:40.501Z,93664.38
2018-05-15T20:52:08.816Z,93667.79
2018-05-15T20:54:37.664Z,93669.41
2018-05-15T20:57:06.106Z,93662.14
2018-05-15T20:59:34.870Z,93666.59
2018-05-15T21:02:03.276Z,93671.44
2018-05-15T21:04:31.895Z,93670.22
2018-05-15T21:07:00.733Z,93661.64
2018-05-15T21:09:29.652Z,93658.08
2018-05-15T21:11:58.241Z,93654.77
2018-05-15T21:14:27.453Z,93654.87
2018-05-15T21:16:56.002Z,93664.95
2018-05-15T21:19:24.601Z,93658.56
2018-05-15T21:21:53.436Z,93659.47
2018-05-15T21:24:22.345Z,93663.03
2018-05-15T21:26:51.117Z,93661.09
2018-05-15T21:29:19.694Z,93658.19
2018-05-15T21:31:48.365Z,93665.36
2018-05-15T21:34:16.817Z,93661.09
2018-05-15T21:36:45.270Z,93667.77
2018-05-15T21:39:14.037Z,93662.12
2018-05-15T21:41:42.422Z,93657.17
2018-05-15T21:44:10.904Z,93659.30
2018-05-15T21:46:39.410Z,93657.00
2018-05-15T21:49:07.898Z,93655.10
2018-05-15T21:51:36.382Z,93658.13
2018-05-15T21:54:05.029Z,93650.16
2018-05-15T21:56:33.817Z,93648.84
2018-05-15T21:59:02.670Z,93646.00
2018-05-15T22:01:31.838Z,93644.70
2018-05-15T22:04:00.607Z,93651.47
2018-05-15T22:06:29.299Z,93650.38
2018-05-15T22:08:57.880Z,93655.08
2018-05-15T22:11:26.557Z,93657.94
2018-05-15T22:14:01.534Z,93658.41
2018-05-15T22:16:42.632Z,93659.54
2018-05-15T22:19:23.824Z,93666.11
2018-05-15T22:22:04.852Z,93662.88
2018-05-15T22:24:39.753Z,93664.09
2018-05-15T22:27:08.424Z,93661.39
2018-05-15T22:29:36.797Z,93656.25
2018-05-15T22:32:05.674Z,93658.36
2018-05-15T22:34:34.392Z,93663.70
2018-05-15T22:37:03.237Z,93665.02
2018-05-15T22:39:32.102Z,93651.81
2018-05-15T22:42:00.636Z,93663.03
2018-05-15T22:44:29.385Z,93653.82
2018-05-15T22:46:57.960Z,93658.96
2018-05-15T22:49:26.660Z,93657.26
2018-05-15T22:51:55.553Z,93652.52
2018-05-15T22:54:24.280Z,93650.47
2018-05-15T22:56:52.801Z,93648.77
2018-05-15T22:59:22.037Z,93658.16
2018-05-15T23:01:50.666Z,93649.48
2018-05-15T23:04:19.637Z,93645.23
2018-05-15T23:06:48.429Z,93647.55
2018-05-15T23:09:17.241Z,93642.71
2018-05-15T23:11:45.557Z,93641.40
2018-05-15T23:14:14.246Z,93639.78
2018-05-15T23:16:42.756Z,93639.17
2018-05-15T23:19:11.800Z,93636.75
2018-05-15T23:21:40.667Z,93632.71
2018-05-15T23:24:09.477Z,93625.03
2018-05-15T23:26:38.204Z,93630.30
2018-05-15T23:29:07.082Z,93621.09
2018-05-15T23:31:35.273Z,93626.45
2018-05-15T23:34:04.145Z,93621.92
2018-05-15T23:36:32.915Z,93616.75
2018-05-15T23:39:01.391Z,93622.41
2018-05-15T23:41:29.834Z,93617.86
2018-05-15T23:43:58.543Z,93619.20
2018-05-15T23:46:27.410Z,93620.80
2018-05-15T23:48:55.930Z,93618.38
2018-05-15T23:51:24.786Z,93618.80
2018-05-15T23:53:53.141Z,93616.37
2018-05-15T23:56:21.629Z,93620.42
2018-05-15T23:58:50.460Z,93620.40
